Rubin Power — 3FNG6 — position and weather

sailwx.info

Track history (hours):
 
Tides and Currents Weather Stations Pressure Air Temp Water Temp Dewpoint Dewpoint Depression Visibility Wind Speed Wind Dir Waves Ship Positions

Rubin Power

Last reported at 2014-Aug-25 06:23 UTC. Time now 2014-Aug-31 08:39 UTC.
Position S 34°12' E 018°11'.

Length 218.7 m; beam 32.2 m.

Type: Cargo ship. MMSI: 356808000.

Date/timePositionNaut miles runAvg speedWind from/ knotsBaromVisibWave heightAir tempDewpointWater temp
2014-Aug-25 06:23S 34°12' E 018°11'1313.8
2014-Aug-25 05:25S 34°25' E 018°17'1512.9
2014-Aug-25 04:14S 34°34' E 018°32'913.2
2014-Aug-25 03:33S 34°38' E 018°42'1313.0
2014-Aug-25 02:33S 34°44' E 018°55'34512.2
2014-Aug-23 22:11S 34°06' E 025°51'349 9.5
2014-Aug-22 09:15S 30°12' E 030°57'913.4
2014-Aug-22 08:33S 30°04' E 031°03'1312.6
2014-Aug-22 07:33S 29°53' E 031°10'3 3.1
2014-Aug-22 06:33S 29°50' E 031°10'8 7.9
2014-Aug-22 05:32S 29°46' E 031°18'1010.2
2014-Aug-22 04:32S 29°40' E 031°28'6512.4
2014-Aug-21 23:19S 29°01' E 032°27'  
Track history (hours):
 
Tides and Currents Weather Stations Pressure Air Temp Water Temp Dewpoint Dewpoint Depression Visibility Wind Speed Wind Dir Waves Ship Positions

Rubin Power

Last reported at 2014-Aug-25 06:23 UTC. Time now 2014-Aug-31 08:39 UTC.
Position S 34°12' E 018°11'.

Length 218.7 m; beam 32.2 m.

Type: Cargo ship. MMSI: 356808000.

Date/timePositionNaut miles runAvg speedWind from/ knotsBaromVisibWave heightAir tempDewpointWater temp
2014-Aug-25 06:23S 34°12' E 018°11'1313.8
2014-Aug-25 05:25S 34°25' E 018°17'1512.9
2014-Aug-25 04:14S 34°34' E 018°32'913.2
2014-Aug-25 03:33S 34°38' E 018°42'1313.0
2014-Aug-25 02:33S 34°44' E 018°55'34512.2
2014-Aug-23 22:11S 34°06' E 025°51'349 9.5
2014-Aug-22 09:15S 30°12' E 030°57'913.4
2014-Aug-22 08:33S 30°04' E 031°03'1312.6
2014-Aug-22 07:33S 29°53' E 031°10'3 3.1
2014-Aug-22 06:33S 29°50' E 031°10'8 7.9
2014-Aug-22 05:32S 29°46' E 031°18'1010.2
2014-Aug-22 04:32S 29°40' E 031°28'6512.4
2014-Aug-21 23:19S 29°01' E 032°27'  

Dump ship's entire track history